Time;durP1;ratioP1;P1;durP2;ratioP2;P2;SDS_P1;SDS_P2;PMS_P1;PMS_P2;Temp;Humidity;BMP_temperature;BMP_pressure;BME280_temperature;BME280_humidity;BME280_pressure;Samples;Min_cycle;Max_cycle;Signal;HPM_P1;HPM_P2
2022/06/30 00:03:23;;;;;;;4.47;3.15;;;;;;;20.12;55.44;100117.72;10135145;29;20621;-77
2022/06/30 00:08:26;;;;;;;4.05;3.75;;;;;;;20.19;56.48;100111.53;10130531;29;20056;-77
2022/06/30 00:13:29;;;;;;;7.20;4.00;;;;;;;20.05;57.09;100114.13;10134878;29;20115;-77
2022/06/30 00:18:33;;;;;;;5.55;3.20;;;;;;;19.91;57.18;100117.69;10129176;29;20283;-78
2022/06/30 00:23:37;;;;;;;3.97;3.20;;;;;;;19.65;57.14;100121.81;10133876;29;20105;-77
2022/06/30 00:28:39;;;;;;;4.55;3.58;;;;;;;19.62;57.05;100114.00;10130756;29;20785;-78
2022/06/30 00:33:43;;;;;;;3.50;3.30;;;;;;;19.61;57.47;100106.03;10116725;29;20113;-77
2022/06/30 00:38:46;;;;;;;3.80;3.50;;;;;;;19.58;57.53;100096.38;10129274;29;20783;-78
2022/06/30 00:43:49;;;;;;;4.18;3.33;;;;;;;19.55;58.21;100090.41;10108716;29;20146;-77
2022/06/30 00:48:54;;;;;;;5.07;3.97;;;;;;;19.65;58.02;100093.72;10132262;29;20717;-77
2022/06/30 00:54:02;;;;;;;3.67;3.38;;;;;;;19.74;57.41;100091.72;10131202;29;20054;-77
2022/06/30 00:59:06;;;;;;;3.63;3.30;;;;;;;19.74;57.12;100097.19;10127843;29;20514;-78
2022/06/30 01:04:10;;;;;;;3.88;3.58;;;;;;;19.60;57.28;100093.44;10105267;29;20510;-78
2022/06/30 01:12:41;;;;;;;4.20;3.80;;;;;;;19.55;57.49;100098.59;10131454;29;20044;-78
2022/06/30 01:14:37;;;;;;;5.20;3.95;;;;;;;19.54;57.68;100095.03;10132028;29;20489;-77
2022/06/30 01:19:52;;;;;;;4.22;3.33;;;;;;;19.50;57.97;100087.41;10132510;29;20619;-77
2022/06/30 01:24:57;;;;;;;3.90;3.40;;;;;;;19.48;58.33;100089.50;10132108;29;20139;-77
2022/06/30 01:30:01;;;;;;;4.13;3.83;;;;;;;19.28;58.94;100075.59;10132863;29;21332;-77
2022/06/30 01:35:05;;;;;;;3.90;3.60;;;;;;;19.10;59.38;100065.09;10136263;29;20073;-78
2022/06/30 01:40:11;;;;;;;3.80;3.50;;;;;;;19.07;59.70;100058.16;10139952;29;20421;-77
2022/06/30 01:45:14;;;;;;;5.45;3.83;;;;;;;18.99;59.71;100048.19;10140672;29;20135;-77
2022/06/30 01:50:18;;;;;;;5.15;3.75;;;;;;;18.89;59.79;100052.22;10138358;29;20056;-77
2022/06/30 01:55:23;;;;;;;4.82;4.20;;;;;;;18.83;60.22;100047.53;10137105;29;20056;-77
2022/06/30 02:00:26;;;;;;;4.85;3.95;;;;;;;18.83;60.26;100033.94;10139695;29;20079;-78
2022/06/30 02:05:30;;;;;;;3.83;3.53;;;;;;;18.83;60.49;100014.91;10140087;29;20059;-77
2022/06/30 02:10:34;;;;;;;5.22;4.82;;;;;;;18.84;60.22;100014.72;10138061;29;20659;-77
2022/06/30 02:15:37;;;;;;;4.60;4.20;;;;;;;18.82;60.47;100011.34;10137936;29;20051;-77
2022/06/30 02:20:40;;;;;;;6.95;4.65;;;;;;;18.72;60.26;100011.56;10131012;29;20054;-77
2022/06/30 02:25:44;;;;;;;7.00;4.75;;;;;;;18.61;60.49;100020.19;10137891;29;20059;-77
2022/06/30 02:30:47;;;;;;;5.50;4.40;;;;;;;18.41;61.16;100017.16;10138707;29;20060;-77
2022/06/30 02:35:49;;;;;;;5.47;4.57;;;;;;;18.46;61.36;100022.06;10140242;29;20048;-77
2022/06/30 02:40:53;;;;;;;5.43;5.03;;;;;;;18.28;61.67;100025.94;10111186;29;20056;-77
2022/06/30 02:45:56;;;;;;;5.45;4.25;;;;;;;18.20;62.20;100036.03;10135500;29;20164;-77
2022/06/30 02:50:59;;;;;;;5.30;4.80;;;;;;;18.09;62.39;100040.88;10134333;29;20048;-77
2022/06/30 02:56:03;;;;;;;5.78;4.50;;;;;;;16.88;66.57;100044.00;10137962;29;20048;-77
2022/06/30 03:01:06;;;;;;;8.73;4.80;;;;;;;16.69;67.32;100050.63;10137759;29;20063;-77
2022/06/30 03:06:09;;;;;;;7.85;4.50;;;;;;;17.10;66.14;100047.81;10135901;29;20627;-77
2022/06/30 03:11:16;;;;;;;5.50;5.00;;;;;;;17.35;65.34;100040.44;10137084;29;20203;-76
2022/06/30 03:16:30;;;;;;;4.72;4.30;;;;;;;17.54;64.85;100031.03;10134007;29;20052;-77
2022/06/30 03:21:33;;;;;;;4.93;4.43;;;;;;;17.62;64.12;100028.25;10137825;29;20506;-77
2022/06/30 03:26:37;;;;;;;;;;;;;;;17.67;64.33;100028.56;10137566;29;20054;-77
2022/06/30 03:31:40;;;;;;;7.75;4.65;;;;;;;17.70;64.51;100021.94;10137879;29;20022;-78
2022/06/30 03:36:43;;;;;;;5.63;5.05;;;;;;;17.74;64.56;100023.25;10135874;29;20604;-77
2022/06/30 03:41:47;;;;;;;5.90;5.10;;;;;;;17.84;64.08;100013.00;10135584;29;20143;-77
2022/06/30 03:46:50;;;;;;;7.53;5.18;;;;;;;17.77;64.25;100003.91;10136773;29;20534;-77
2022/06/30 03:51:58;;;;;;;6.85;5.32;;;;;;;17.84;64.38;100001.31;10135518;29;20056;-77
2022/06/30 03:57:02;;;;;;;6.88;5.57;;;;;;;17.87;64.35;100015.34;10111699;29;20573;-76
2022/06/30 04:02:10;;;;;;;5.97;5.32;;;;;;;18.04;64.38;100013.38;10117396;29;20076;-76
2022/06/30 04:07:13;;;;;;;6.95;5.38;;;;;;;18.21;63.84;100005.09;10134800;29;20399;-77
2022/06/30 04:12:17;;;;;;;5.68;5.10;;;;;;;18.47;63.03;100007.41;10133834;29;20589;-77
2022/06/30 04:17:20;;;;;;;7.03;5.55;;;;;;;18.69;62.82;100016.53;10134172;29;20106;-76
2022/06/30 04:22:23;;;;;;;8.90;5.53;;;;;;;18.89;62.17;100012.25;10132391;29;20054;-76
2022/06/30 04:27:27;;;;;;;6.53;5.57;;;;;;;19.00;61.73;100017.22;10134102;29;20973;-77
2022/06/30 04:32:39;;;;;;;5.55;5.05;;;;;;;19.08;61.65;100027.16;10132322;29;20052;-77
2022/06/30 04:37:42;;;;;;;6.43;5.80;;;;;;;19.24;61.58;100016.06;10133228;29;20589;-77
2022/06/30 04:42:46;;;;;;;7.25;5.97;;;;;;;19.27;61.62;100017.56;10134275;29;20055;-77
2022/06/30 04:47:49;;;;;;;7.60;5.20;;;;;;;19.29;61.93;100017.41;10132732;29;20048;-77
2022/06/30 04:52:52;;;;;;;6.75;5.97;;;;;;;19.48;61.90;100019.53;10107987;29;20080;-76
2022/06/30 04:57:56;;;;;;;6.72;5.82;;;;;;;19.65;61.57;100021.00;10135240;29;20573;-77
2022/06/30 05:02:59;;;;;;;7.03;6.35;;;;;;;19.76;61.33;100006.03;10135117;29;20047;-77
2022/06/30 05:08:02;;;;;;;6.90;6.20;;;;;;;19.74;61.24;100009.97;10128545;29;20052;-77
2022/06/30 05:13:07;;;;;;;7.43;6.03;;;;;;;19.83;61.29;100003.38;10125637;29;20100;-77
2022/06/30 05:18:10;;;;;;;6.82;6.25;;;;;;;20.12;60.72;100016.84;10134932;29;20083;-76
2022/06/30 05:23:13;;;;;;;8.98;6.40;;;;;;;20.32;60.18;100011.63;10132513;29;20126;-76
2022/06/30 05:28:17;;;;;;;7.88;5.57;;;;;;;20.54;60.10;100009.69;10133864;29;20168;-77
2022/06/30 05:33:20;;;;;;;7.15;6.40;;;;;;;20.66;59.86;100011.88;10128599;29;20084;-77
2022/06/30 05:38:23;;;;;;;10.90;6.90;;;;;;;20.87;59.81;100008.22;10133757;29;20115;-77
2022/06/30 05:43:27;;;;;;;9.60;7.00;;;;;;;20.94;59.15;100003.63;10134329;29;20066;-76
2022/06/30 05:48:30;;;;;;;7.40;6.30;;;;;;;20.88;59.47;100007.19;10133602;29;20514;-77
2022/06/30 05:53:33;;;;;;;9.95;7.30;;;;;;;20.93;59.33;100004.69;10132583;29;20139;-77
2022/06/30 05:58:37;;;;;;;7.55;6.85;;;;;;;20.84;59.73;99997.69;10116474;29;20174;-76
2022/06/30 06:03:40;;;;;;;7.35;6.65;;;;;;;20.51;60.82;99996.44;10133398;29;20045;-77
2022/06/30 06:08:42;;;;;;;8.30;7.50;;;;;;;20.46;61.78;99984.44;10134699;29;20580;-79
2022/06/30 06:13:47;;;;;;;10.27;7.45;;;;;;;20.62;61.68;99988.75;10134225;29;20052;-77
2022/06/30 06:18:49;;;;;;;9.30;7.90;;;;;;;20.55;61.73;99978.63;10133226;29;20104;-77
2022/06/30 06:23:52;;;;;;;8.63;7.57;;;;;;;20.86;61.33;99976.50;10140420;29;20434;-77
2022/06/30 06:29:09;;;;;;;9.90;8.35;;;;;;;20.90;61.11;99989.56;10140511;29;20081;-77
2022/06/30 06:34:15;;;;;;;9.05;7.93;;;;;;;21.25;60.33;99975.03;10137513;29;20088;-77
2022/06/30 06:39:17;;;;;;;9.52;8.63;;;;;;;21.47;60.65;99978.47;10137518;29;20063;-77
2022/06/30 06:44:22;;;;;;;10.38;8.93;;;;;;;21.68;59.31;99970.13;10136684;29;20071;-77
2022/06/30 06:49:27;;;;;;;8.95;8.02;;;;;;;21.93;59.39;99978.59;10121501;29;20055;-76
2022/06/30 06:54:30;;;;;;;9.82;8.82;;;;;;;22.24;58.01;99979.88;10138853;29;20103;-77
2022/06/30 06:59:36;;;;;;;9.65;8.60;;;;;;;22.27;57.86;99973.97;10139272;29;20118;-77
2022/06/30 07:04:39;;;;;;;12.57;9.27;;;;;;;22.55;57.15;99987.47;10138492;29;20135;-77
2022/06/30 07:09:42;;;;;;;10.13;9.02;;;;;;;22.67;57.49;99993.13;10139099;29;20063;-77
2022/06/30 07:14:47;;;;;;;12.25;8.32;;;;;;;23.22;56.63;99988.13;10136951;29;20174;-77
2022/06/30 07:19:49;;;;;;;9.27;8.38;;;;;;;24.08;54.39;99982.19;10137629;29;20498;-77
2022/06/30 07:24:52;;;;;;;8.40;7.60;;;;;;;26.28;49.92;99980.41;10123200;29;20092;-77
2022/06/30 07:29:56;;;;;;;9.73;8.73;;;;;;;29.21;43.87;99979.28;10139018;29;20111;-77
2022/06/30 07:34:59;;;;;;;9.77;7.85;;;;;;;31.57;39.63;99968.09;10137931;29;20528;-77
2022/06/30 07:40:02;;;;;;;9.88;8.88;;;;;;;33.19;36.14;99967.44;10138596;29;20458;-77
2022/06/30 07:45:13;;;;;;;10.30;8.35;;;;;;;33.77;35.19;99965.72;10141126;29;20056;-77
2022/06/30 07:50:16;;;;;;;10.57;9.57;;;;;;;32.18;36.98;99956.25;10139488;29;20182;-77
2022/06/30 07:55:19;;;;;;;11.05;9.20;;;;;;;32.15;37.49;99949.28;10139906;29;20597;-77
2022/06/30 08:00:24;;;;;;;9.98;8.93;;;;;;;30.97;39.04;99955.66;10140562;29;20611;-77
2022/06/30 08:05:27;;;;;;;10.65;9.55;;;;;;;29.09;43.04;99959.22;10139834;29;20056;-77
2022/06/30 08:10:30;;;;;;;10.70;9.55;;;;;;;28.40;44.77;99965.13;10133240;29;20048;-77
2022/06/30 08:15:34;;;;;;;11.05;9.40;;;;;;;28.31;45.48;99974.91;10141523;29;20063;-77
2022/06/30 08:20:37;;;;;;;11.55;10.30;;;;;;;28.41;45.64;99975.88;10138757;29;20056;-77
2022/06/30 08:25:40;;;;;;;10.38;9.43;;;;;;;28.57;45.05;99965.13;10118379;29;20541;-77
2022/06/30 08:30:46;;;;;;;12.80;9.65;;;;;;;28.59;45.10;99965.72;10138947;29;20051;-77
2022/06/30 08:35:49;;;;;;;13.20;10.15;;;;;;;28.42;43.95;99974.00;10139183;29;20067;-77
2022/06/30 08:46:26;;;;;;;11.10;10.10;;;;;;;28.26;44.87;99967.38;10135145;29;20648;-77
2022/06/30 08:51:30;;;;;;;11.93;9.77;;;;;;;28.52;44.69;99970.56;10115448;29;21191;-77
2022/06/30 08:56:35;;;;;;;12.30;10.00;;;;;;;28.64;44.04;99974.91;10138309;29;20056;-77
2022/06/30 09:01:40;;;;;;;10.02;9.18;;;;;;;29.04;42.46;99970.19;10139783;29;20466;-77
2022/06/30 09:06:44;;;;;;;10.75;9.82;;;;;;;28.90;42.65;99965.03;10138642;29;20052;-78
2022/06/30 09:11:50;;;;;;;10.18;9.18;;;;;;;28.98;43.55;99973.97;10136758;29;20052;-77
2022/06/30 09:16:54;;;;;;;10.13;8.40;;;;;;;29.24;41.27;99955.81;10139291;29;20072;-77
2022/06/30 09:22:09;;;;;;;10.02;8.98;;;;;;;29.63;41.92;99964.00;10139754;29;21189;-77
2022/06/30 09:27:17;;;;;;;11.45;9.45;;;;;;;30.03;40.45;99955.25;10137671;29;20066;-78
2022/06/30 09:32:22;;;;;;;10.20;9.18;;;;;;;30.10;41.00;99961.41;10139904;29;20048;-78
2022/06/30 09:37:25;;;;;;;10.20;9.20;;;;;;;30.56;40.84;99956.22;10141086;29;20044;-78
2022/06/30 09:42:40;;;;;;;10.13;8.60;;;;;;;31.13;39.74;99949.06;10140365;29;20067;-78
2022/06/30 09:47:58;;;;;;;8.98;7.68;;;;;;;31.44;37.92;99949.19;10137532;29;20052;-78
2022/06/30 09:53:08;;;;;;;9.82;7.43;;;;;;;31.10;37.10;99949.56;10140991;29;20052;-78
2022/06/30 09:58:13;;;;;;;7.65;6.95;;;;;;;31.51;36.37;99939.50;10149690;29;20063;-78
2022/06/30 10:03:18;;;;;;;7.97;7.28;;;;;;;31.57;37.21;99934.78;10145708;29;20051;-78
2022/06/30 10:08:25;;;;;;;9.77;6.10;;;;;;;31.99;35.41;99939.28;10169992;29;20056;-78
2022/06/30 10:13:28;;;;;;;9.68;6.47;;;;;;;32.29;34.93;99935.66;10155076;29;20063;-78
2022/06/30 10:18:37;;;;;;;8.10;6.45;;;;;;;31.85;35.52;99929.84;10150033;29;20086;-78
2022/06/30 10:23:40;;;;;;;6.82;6.10;;;;;;;31.77;34.82;99922.88;10129937;29;20095;-78
2022/06/30 10:28:43;;;;;;;6.68;6.20;;;;;;;30.78;36.64;99942.25;10143535;29;20078;-77
2022/06/30 10:33:53;;;;;;;6.57;5.97;;;;;;;31.56;35.89;99930.31;10144651;29;20059;-78
2022/06/30 10:39:04;;;;;;;6.00;5.50;;;;;;;32.83;34.24;99920.25;10144562;29;20119;-78
2022/06/30 10:44:14;;;;;;;6.00;5.55;;;;;;;32.84;34.85;99913.59;10144562;29;20068;-78
2022/06/30 10:49:20;;;;;;;6.32;5.72;;;;;;;32.12;34.33;99921.22;10142194;29;20164;-78
2022/06/30 10:54:31;;;;;;;6.65;6.15;;;;;;;33.12;34.95;99900.94;10140861;29;20079;-78
2022/06/30 10:59:37;;;;;;;6.57;5.53;;;;;;;33.22;33.37;99903.69;10141409;29;20103;-78
2022/06/30 11:04:43;;;;;;;5.90;5.40;;;;;;;34.22;32.17;99897.94;10141607;29;20529;-78
2022/06/30 11:10:01;;;;;;;5.75;5.25;;;;;;;34.31;30.23;99894.25;10140739;29;20582;-77
2022/06/30 11:15:04;;;;;;;5.90;5.30;;;;;;;34.04;29.50;99889.19;10141960;29;20063;-78
2022/06/30 11:20:12;;;;;;;7.47;5.20;;;;;;;34.11;30.81;99886.91;10122785;29;20122;-78
2022/06/30 11:30:35;;;;;;;5.50;4.38;;;;;;;34.74;29.05;99876.75;10137499;29;20522;-78
2022/06/30 11:35:39;;;;;;;4.95;4.55;;;;;;;33.13;30.98;99871.16;10141178;29;20131;-79
2022/06/30 11:40:42;;;;;;;3.03;2.80;;;;;;;33.82;28.73;99859.03;10138777;29;20195;-78
2022/06/30 11:45:45;;;;;;;3.70;3.40;;;;;;;34.37;28.20;99851.25;10142180;29;20150;-78
2022/06/30 11:50:49;;;;;;;3.60;3.40;;;;;;;35.54;27.37;99856.41;10139204;29;20507;-78
2022/06/30 11:55:53;;;;;;;3.47;3.17;;;;;;;35.42;25.59;99848.47;10139958;29;20055;-77
2022/06/30 12:00:56;;;;;;;4.93;3.40;;;;;;;34.63;27.35;99845.38;10140596;29;20067;-78
2022/06/30 12:06:00;;;;;;;5.82;5.28;;;;;;;34.59;29.83;99842.38;10115446;29;20044;-77
2022/06/30 12:11:03;;;;;;;8.40;5.70;;;;;;;34.91;30.44;99834.41;10136237;29;20495;-80
2022/06/30 12:16:06;;;;;;;6.25;5.68;;;;;;;35.98;29.83;99834.72;10143664;29;20052;-80
2022/06/30 12:21:11;;;;;;;4.78;4.45;;;;;;;35.95;29.72;99833.38;10117793;29;20064;-80
2022/06/30 12:26:14;;;;;;;5.25;4.93;;;;;;;36.48;29.03;99843.25;10144360;29;20063;-79
2022/06/30 12:31:24;;;;;;;6.40;4.97;;;;;;;36.81;27.04;99835.63;10143044;29;20111;-78
2022/06/30 12:36:33;;;;;;;5.28;4.82;;;;;;;35.55;28.40;99832.13;10145102;29;20052;-79
2022/06/30 12:41:36;;;;;;;5.32;4.50;;;;;;;35.25;29.47;99828.66;10148319;29;20050;-80
2022/06/30 12:46:40;;;;;;;6.50;5.10;;;;;;;35.24;28.72;99824.19;10161130;29;20048;-79
2022/06/30 12:51:48;;;;;;;4.93;4.55;;;;;;;36.10;27.18;99829.47;10132706;29;20080;-79
2022/06/30 12:56:51;;;;;;;6.63;4.47;;;;;;;37.85;27.29;99824.44;10125952;29;20163;-79
2022/06/30 13:01:56;;;;;;;9.55;5.90;;;;;;;38.95;25.99;99823.59;10121937;29;20055;-79
2022/06/30 13:07:01;;;;;;;6.55;5.72;;;;;;;38.70;25.80;99821.53;10132628;29;20044;-79
2022/06/30 13:12:05;;;;;;;6.55;5.50;;;;;;;37.34;27.37;99826.56;10127847;29;20052;-80
2022/06/30 13:17:09;;;;;;;8.00;6.82;;;;;;;35.00;30.28;99827.88;10137178;29;20056;-79
2022/06/30 13:22:14;;;;;;;6.60;6.00;;;;;;;31.51;35.41;99853.47;10132798;29;20070;-79
2022/06/30 13:27:18;;;;;;;8.80;6.22;;;;;;;30.00;38.25;99859.69;10104242;29;20052;-78
2022/06/30 13:32:21;;;;;;;13.13;5.97;;;;;;;29.37;39.67;99853.91;10130858;29;20103;-78
2022/06/30 13:37:25;;;;;;;7.28;6.53;;;;;;;28.75;42.70;99865.34;10167557;29;20060;-79
2022/06/30 13:42:28;;;;;;;11.88;6.80;;;;;;;28.48;47.06;99871.59;10150663;29;20155;-79
2022/06/30 13:47:31;;;;;;;9.98;7.28;;;;;;;29.28;50.03;99865.69;10149327;29;20044;-79
2022/06/30 13:52:36;;;;;;;11.05;7.63;;;;;;;30.39;46.27;99866.88;10148952;29;20055;-78
2022/06/30 13:57:38;;;;;;;10.65;7.38;;;;;;;31.79;43.86;99854.03;10141785;29;20454;-79
2022/06/30 14:02:46;;;;;;;10.40;7.50;;;;;;;31.58;42.25;99845.66;10116516;29;20048;-79
2022/06/30 14:07:51;;;;;;;10.70;7.32;;;;;;;31.70;42.04;99836.25;10145060;29;20044;-79
2022/06/30 14:12:56;;;;;;;11.55;7.95;;;;;;;32.19;40.27;99839.28;10149068;29;20048;-79
2022/06/30 14:17:59;;;;;;;13.00;7.25;;;;;;;33.03;39.74;99827.56;10127949;29;20141;-80
2022/06/30 14:23:03;;;;;;;9.20;6.90;;;;;;;33.13;38.60;99813.56;10148165;29;20080;-78
2022/06/30 14:28:07;;;;;;;8.15;7.45;;;;;;;33.58;37.78;99803.25;10114427;29;20203;-78
2022/06/30 14:33:10;;;;;;;9.90;8.02;;;;;;;33.63;37.44;99794.88;10125069;29;20059;-76
2022/06/30 14:38:14;;;;;;;8.15;7.25;;;;;;;33.43;37.37;99781.91;10142039;29;20107;-77
2022/06/30 14:43:17;;;;;;;8.00;7.13;;;;;;;33.39;36.26;99778.06;10137601;29;20071;-77
2022/06/30 14:48:20;;;;;;;9.68;6.68;;;;;;;33.25;36.23;99771.53;10125746;29;20772;-77
2022/06/30 14:53:24;;;;;;;7.72;7.03;;;;;;;33.97;36.37;99760.56;10139636;29;20195;-76
2022/06/30 14:58:27;;;;;;;8.10;7.05;;;;;;;33.99;34.97;99763.88;10134744;29;20246;-76
2022/06/30 15:03:35;;;;;;;7.72;7.03;;;;;;;33.77;35.45;99758.81;10136035;29;20135;-77
2022/06/30 15:08:40;;;;;;;7.15;6.45;;;;;;;34.57;34.69;99747.03;10136323;29;20131;-77
2022/06/30 15:13:43;;;;;;;7.60;6.82;;;;;;;34.60;32.69;99756.75;10135665;29;20131;-77
2022/06/30 15:18:45;;;;;;;7.07;6.15;;;;;;;34.80;31.84;99750.03;10134613;29;20176;-77
2022/06/30 15:24:09;;;;;;;8.45;6.55;;;;;;;34.72;31.22;99747.94;10135986;29;20089;-78
2022/06/30 15:29:13;;;;;;;7.40;6.70;;;;;;;35.34;31.83;99740.28;10118297;29;20052;-76
2022/06/30 15:34:16;;;;;;;6.70;6.00;;;;;;;35.27;31.19;99737.91;10135876;29;20545;-75
2022/06/30 15:39:21;;;;;;;6.60;6.00;;;;;;;35.14;30.67;99737.84;10132585;29;20047;-76
2022/06/30 15:44:24;;;;;;;7.78;5.93;;;;;;;34.96;31.80;99729.16;10136181;29;20184;-76
2022/06/30 15:49:27;;;;;;;7.90;7.18;;;;;;;34.87;31.84;99728.19;10135714;29;20653;-77
2022/06/30 15:54:33;;;;;;;10.20;7.85;;;;;;;34.60;33.17;99726.09;10135652;29;20059;-76
2022/06/30 15:59:36;;;;;;;9.88;7.90;;;;;;;34.40;33.18;99713.25;10102588;29;20071;-76
2022/06/30 16:04:39;;;;;;;7.53;6.82;;;;;;;34.66;32.48;99702.56;10134496;29;20094;-77
2022/06/30 16:09:43;;;;;;;7.15;6.55;;;;;;;34.36;31.81;99695.44;10133937;29;20048;-77
2022/06/30 16:14:46;;;;;;;7.32;6.63;;;;;;;34.38;33.19;99688.44;10134112;29;20056;-77
2022/06/30 16:19:49;;;;;;;8.25;7.38;;;;;;;34.74;32.20;99684.34;10132360;29;20107;-77
2022/06/30 16:24:53;;;;;;;7.43;6.40;;;;;;;34.41;32.82;99670.28;10135946;29;21238;-75
2022/06/30 16:29:57;;;;;;;6.60;6.00;;;;;;;34.57;32.22;99665.34;10131563;29;20048;-76
2022/06/30 16:34:59;;;;;;;7.20;6.50;;;;;;;34.92;31.23;99665.94;10132987;29;20052;-76
2022/06/30 16:40:05;;;;;;;14.55;7.15;;;;;;;37.84;28.95;99657.47;10133484;29;20138;-76
2022/06/30 16:45:09;;;;;;;6.40;5.90;;;;;;;39.89;25.96;99648.78;10134852;29;20059;-76
2022/06/30 16:50:16;;;;;;;6.68;5.20;;;;;;;40.37;23.72;99635.41;10103148;29;21326;-76
2022/06/30 16:55:20;;;;;;;4.80;4.40;;;;;;;40.46;23.31;99633.34;10136500;29;20171;-76
2022/06/30 17:00:23;;;;;;;4.82;4.40;;;;;;;41.57;22.24;99634.56;10136656;29;20071;-77
2022/06/30 17:05:26;;;;;;;4.22;3.92;;;;;;;41.67;22.18;99628.44;10135811;29;20088;-76
2022/06/30 17:10:34;;;;;;;4.00;3.70;;;;;;;42.16;21.24;99638.91;10136753;29;20502;-76
2022/06/30 17:15:38;;;;;;;4.15;3.75;;;;;;;42.46;21.13;99622.47;10134566;29;21527;-76
2022/06/30 17:20:41;;;;;;;4.97;4.53;;;;;;;42.14;21.71;99630.81;10135416;29;20063;-76
2022/06/30 17:25:45;;;;;;;5.35;4.38;;;;;;;42.98;20.89;99624.44;10133999;29;20052;-77
2022/06/30 17:30:48;;;;;;;5.22;4.75;;;;;;;42.72;21.00;99622.88;10133818;29;20176;-76
2022/06/30 17:35:52;;;;;;;5.07;4.72;;;;;;;41.89;21.96;99615.09;10135322;29;20052;-77
2022/06/30 17:40:56;;;;;;;5.47;4.97;;;;;;;40.96;23.13;99612.72;10134679;29;20255;-76
2022/06/30 17:45:59;;;;;;;10.10;4.72;;;;;;;40.22;23.94;99612.34;10135099;29;20171;-77
2022/06/30 17:51:02;;;;;;;6.57;5.22;;;;;;;38.76;25.08;99609.78;10134039;29;20135;-77
2022/06/30 17:56:07;;;;;;;5.93;5.03;;;;;;;34.11;30.60;99625.00;10132599;29;21311;-76
2022/06/30 18:01:10;;;;;;;6.90;5.43;;;;;;;31.66;34.30;99613.94;10130846;29;20074;-76
2022/06/30 18:11:31;;;;;;;5.72;5.07;;;;;;;29.04;37.71;99610.81;10132591;29;20247;-75
2022/06/30 18:16:34;;;;;;;5.15;4.65;;;;;;;28.62;38.80;99604.13;10137125;29;20043;-76
2022/06/30 18:21:37;;;;;;;5.32;4.82;;;;;;;28.45;38.96;99598.69;10140872;29;20127;-76
2022/06/30 18:26:41;;;;;;;5.43;4.93;;;;;;;28.25;39.73;99599.34;10139676;29;20051;-76
2022/06/30 18:31:44;;;;;;;5.13;4.70;;;;;;;27.90;40.21;99596.16;10139661;29;20052;-76
2022/06/30 18:36:48;;;;;;;5.97;5.25;;;;;;;27.73;40.97;99587.91;10140458;29;20056;-77
2022/06/30 18:41:54;;;;;;;6.53;5.82;;;;;;;27.51;41.95;99602.56;10138842;29;20052;-77
2022/06/30 18:46:58;;;;;;;6.82;5.63;;;;;;;27.37;42.73;99592.94;10138621;29;20120;-77
2022/06/30 18:52:09;;;;;;;6.15;5.55;;;;;;;27.24;43.36;99607.94;10123118;29;20069;-77
2022/06/30 18:57:14;;;;;;;5.93;5.38;;;;;;;27.15;43.89;99603.94;10139140;29;20044;-76
2022/06/30 19:02:17;;;;;;;8.80;5.75;;;;;;;27.01;44.29;99610.88;10138960;29;21813;-76
2022/06/30 19:07:19;;;;;;;7.47;5.95;;;;;;;26.87;44.91;99615.91;10138072;29;20746;-75
2022/06/30 19:12:32;;;;;;;8.13;6.57;;;;;;;26.77;45.38;99611.03;10134446;29;20048;-76
2022/06/30 19:17:35;;;;;;;9.50;6.07;;;;;;;26.60;45.86;99605.50;10121309;29;20056;-76
2022/06/30 19:22:38;;;;;;;9.75;7.05;;;;;;;26.52;46.25;99606.75;10137553;29;20117;-75
2022/06/30 19:28:02;;;;;;;6.28;5.68;;;;;;;26.44;46.62;99612.69;10131915;29;20063;-74
2022/06/30 19:33:05;;;;;;;7.57;6.78;;;;;;;26.28;47.15;99605.22;10136720;29;20044;-74
2022/06/30 19:38:08;;;;;;;7.18;6.28;;;;;;;26.15;47.53;99619.25;10138883;29;20048;-76
2022/06/30 19:43:13;;;;;;;7.30;6.70;;;;;;;26.10;48.00;99610.88;10137086;29;20187;-76
2022/06/30 19:48:16;;;;;;;8.18;6.25;;;;;;;25.89;48.60;99604.13;10137815;29;20055;-79
2022/06/30 19:53:19;;;;;;;7.70;6.68;;;;;;;25.79;48.81;99616.59;10142310;29;20056;-76
2022/06/30 19:58:23;;;;;;;9.93;6.65;;;;;;;25.68;49.38;99617.47;10136432;29;20119;-78
2022/06/30 20:14:13;;;;;;;6.85;3.20;;;;;;;21.77;58.61;99777.56;10139060;29;21032;-76
2022/06/30 20:19:16;;;;;;;9.80;3.95;;;;;;;20.60;62.65;99776.16;10138143;29;20066;-77
2022/06/30 20:24:19;;;;;;;4.53;2.50;;;;;;;20.89;62.22;99774.09;10135036;29;20052;-77
2022/06/30 20:29:23;;;;;;;3.92;2.60;;;;;;;20.87;62.69;99809.81;10135592;29;20052;-75
2022/06/30 20:34:26;;;;;;;3.90;2.80;;;;;;;20.76;62.98;99762.13;10136878;29;20147;-75
2022/06/30 20:39:29;;;;;;;2.60;2.40;;;;;;;21.53;61.30;99798.16;10135086;29;20067;-76
2022/06/30 20:44:35;;;;;;;3.58;3.28;;;;;;;21.11;62.49;99793.91;10137241;29;20505;-76
2022/06/30 20:54:59;;;;;;;5.93;3.95;;;;;;;22.11;61.41;99794.75;10136579;29;20184;-76
2022/06/30 21:00:04;;;;;;;4.40;4.00;;;;;;;22.58;60.31;99827.47;10136555;29;20055;-77
2022/06/30 21:05:08;;;;;;;4.55;3.67;;;;;;;22.46;60.66;99871.91;10134353;29;20391;-76
2022/06/30 21:10:11;;;;;;;5.53;3.67;;;;;;;21.75;63.04;99888.16;10133201;29;20052;-77
2022/06/30 21:15:15;;;;;;;6.07;4.85;;;;;;;21.48;64.02;99892.75;10135589;29;20052;-77
2022/06/30 21:20:18;;;;;;;4.05;3.65;;;;;;;20.05;69.86;99867.91;10132341;29;20134;-76
2022/06/30 21:25:22;;;;;;;5.18;3.72;;;;;;;19.86;70.75;99886.66;10131622;29;20056;-76
2022/06/30 21:30:26;;;;;;;7.03;3.60;;;;;;;19.81;70.87;99918.25;10135313;29;21251;-76
2022/06/30 21:35:29;;;;;;;5.45;3.55;;;;;;;19.03;73.30;99928.91;10128612;29;20055;-76
2022/06/30 21:40:32;;;;;;;6.55;4.07;;;;;;;18.83;74.11;99949.59;10134022;29;20418;-76
2022/06/30 21:45:36;;;;;;;4.45;4.05;;;;;;;18.74;74.50;99940.66;10132845;29;20055;-76
2022/06/30 21:50:40;;;;;;;5.18;4.63;;;;;;;18.69;74.50;99935.78;10134857;29;20123;-75
2022/06/30 21:55:45;;;;;;;5.97;4.35;;;;;;;18.19;75.32;99940.06;10140746;29;20154;-76
2022/06/30 22:00:49;;;;;;;4.22;3.83;;;;;;;18.69;73.45;99938.50;10138928;29;20055;-76
2022/06/30 22:05:53;;;;;;;5.45;4.30;;;;;;;18.33;74.68;99965.59;10149816;29;20055;-77
2022/06/30 22:10:56;;;;;;;3.80;3.50;;;;;;;18.46;74.18;99946.75;10144644;29;20056;-76
2022/06/30 22:16:01;;;;;;;4.15;3.40;;;;;;;18.19;74.57;99948.22;10144701;29;20206;-76
2022/06/30 22:21:04;;;;;;;4.10;3.00;;;;;;;18.18;73.53;99978.28;10125649;29;20154;-76
2022/06/30 22:26:07;;;;;;;4.03;3.30;;;;;;;18.19;74.00;99989.00;10144375;29;20058;-76
2022/06/30 22:31:17;;;;;;;6.20;4.15;;;;;;;17.38;76.36;99993.94;10142996;29;20056;-76
2022/06/30 22:36:20;;;;;;;5.30;4.80;;;;;;;17.24;77.34;100008.28;10126217;29;20066;-76
2022/06/30 22:41:23;;;;;;;5.95;5.13;;;;;;;17.26;76.96;100008.94;10143201;29;20422;-76
2022/06/30 22:46:27;;;;;;;5.93;5.38;;;;;;;17.15;77.18;100023.75;10142175;29;20067;-76
2022/06/30 22:51:30;;;;;;;6.90;5.20;;;;;;;17.15;76.49;100026.47;10142521;29;20056;-77
2022/06/30 22:56:34;;;;;;;6.70;4.82;;;;;;;16.54;77.72;100042.38;10142812;29;20055;-76
2022/06/30 23:01:40;;;;;;;5.57;5.00;;;;;;;16.03;78.99;100052.50;10141404;29;20055;-76
2022/06/30 23:06:43;;;;;;;10.98;6.65;;;;;;;16.06;79.33;100087.38;10138348;29;20162;-76
2022/06/30 23:11:48;;;;;;;8.50;5.78;;;;;;;15.83;79.97;100084.47;10141753;29;20070;-75
2022/06/30 23:16:52;;;;;;;6.95;6.03;;;;;;;15.86;79.61;100086.84;10142138;29;20060;-76
2022/06/30 23:21:55;;;;;;;6.88;5.50;;;;;;;15.72;79.73;100102.91;10141073;29;20698;-77
2022/06/30 23:26:58;;;;;;;6.13;5.53;;;;;;;15.69;79.78;100131.16;10124306;29;20056;-76
2022/06/30 23:32:03;;;;;;;8.65;6.53;;;;;;;15.60;79.08;100148.34;10120495;29;20402;-77
2022/06/30 23:37:06;;;;;;;6.03;5.38;;;;;;;15.14;81.50;100159.44;10120927;29;20044;-77
2022/06/30 23:42:09;;;;;;;7.90;6.47;;;;;;;15.72;78.69;100144.38;10140621;29;20055;-76
2022/06/30 23:47:13;;;;;;;7.80;5.75;;;;;;;15.34;80.06;100153.81;10140133;29;20052;-77
2022/06/30 23:52:16;;;;;;;6.50;5.57;;;;;;;14.98;83.82;100135.84;10142391;29;20518;-76
2022/06/30 23:57:19;;;;;;;7.13;6.32;;;;;;;14.60;87.66;100089.25;10128709;29;20056;-76
